Time;durP1;ratioP1;P1;durP2;ratioP2;P2;SDS_P1;SDS_P2;PMS_P1;PMS_P2;Temp;Humidity;BMP_temperature;BMP_pressure;BME280_temperature;BME280_humidity;BME280_pressure;Samples;Min_cycle;Max_cycle;Signal;HPM_P1;HPM_P2
2022/12/27 00:00:32;;;;;;;1.15;1.05;;;;;;;-8.32;86.50;101240.97;10481355;28;20262;-72
2022/12/27 00:05:34;;;;;;;0.85;0.65;;;;;;;-8.37;86.24;101248.56;10525454;28;20049;-73
2022/12/27 00:10:37;;;;;;;1.00;0.88;;;;;;;-8.62;85.13;101249.19;10526389;28;20052;-71
2022/12/27 00:15:39;;;;;;;0.70;0.70;;;;;;;-8.72;84.66;101241.19;10486363;28;20044;-73
2022/12/27 00:20:41;;;;;;;1.05;0.65;;;;;;;-8.72;84.47;101235.03;10506335;28;20096;-71
2022/12/27 00:25:44;;;;;;;1.80;0.85;;;;;;;-8.72;84.12;101230.56;10468117;28;20045;-72
2022/12/27 00:30:53;;;;;;;2.78;0.73;;;;;;;-8.73;84.76;101217.41;10484694;28;20526;-71
2022/12/27 00:35:58;;;;;;;1.55;0.55;;;;;;;-8.74;84.97;101189.13;10498017;28;20052;-72
2022/12/27 00:41:00;;;;;;;1.10;1.00;;;;;;;-8.86;84.45;101173.31;10502495;28;20045;-73
2022/12/27 00:46:03;;;;;;;1.30;1.15;;;;;;;-8.94;84.98;101173.19;10508717;28;20041;-73
2022/12/27 00:51:09;;;;;;;1.38;1.20;;;;;;;-8.97;83.89;101157.53;10530356;28;20511;-70
2022/12/27 00:56:21;;;;;;;1.10;1.00;;;;;;;-8.96;83.56;101137.94;10527675;28;20033;-71
2022/12/27 01:01:26;;;;;;;1.15;1.05;;;;;;;-8.93;83.59;101129.69;10492382;28;20051;-74
2022/12/27 01:06:31;;;;;;;0.80;0.80;;;;;;;-8.90;84.05;101115.25;10503906;28;20071;-73
2022/12/27 01:11:33;;;;;;;1.67;1.00;;;;;;;-8.90;84.04;101108.13;10515885;28;20036;-74
2022/12/27 01:16:37;;;;;;;0.93;0.88;;;;;;;-8.86;84.18;101082.91;10509984;28;20049;-72
2022/12/27 01:21:39;;;;;;;1.05;0.95;;;;;;;-8.88;84.83;101098.16;10474274;28;20630;-72
2022/12/27 01:26:41;;;;;;;1.17;1.00;;;;;;;-8.88;84.32;101058.28;10489881;28;20052;-73
2022/12/27 01:31:44;;;;;;;1.50;1.10;;;;;;;-8.82;84.78;101056.88;10475059;28;20041;-74
2022/12/27 01:36:46;;;;;;;1.98;1.35;;;;;;;-8.82;85.37;101039.09;10522748;28;20052;-72
2022/12/27 01:47:18;;;;;;;1.95;1.63;;;;;;;-8.76;84.69;101018.22;10529722;28;20044;-73
2022/12/27 01:52:22;;;;;;;3.28;1.45;;;;;;;-8.72;85.35;101016.94;10530779;28;20036;-72
2022/12/27 01:57:24;;;;;;;2.00;1.80;;;;;;;-8.64;85.88;101019.72;10495412;28;20438;-75
2022/12/27 02:02:27;;;;;;;1.77;1.52;;;;;;;-8.64;85.49;101007.25;10512637;28;20060;-74
2022/12/27 02:07:40;;;;;;;1.38;0.85;;;;;;;-8.61;85.68;100996.31;10491504;28;20044;-73
2022/12/27 02:12:43;;;;;;;2.40;1.60;;;;;;;-8.61;85.71;100990.16;10489102;28;20550;-73
2022/12/27 02:17:46;;;;;;;1.70;1.48;;;;;;;-8.58;86.39;100985.38;10471356;28;20439;-73
2022/12/27 02:28:48;;;;;;;1.52;1.42;;;;;;;-8.53;86.63;100975.09;10489108;28;20435;-72
2022/12/27 02:33:52;;;;;;;3.95;1.83;;;;;;;-8.47;86.78;100960.38;10478049;28;20557;-73
2022/12/27 02:38:57;;;;;;;2.45;1.65;;;;;;;-8.40;86.89;100929.50;10506934;28;20045;-72
2022/12/27 02:55:33;;;;;;;1.38;1.27;;;;;;;-8.29;86.99;100901.81;10523835;28;20060;-75
2022/12/27 03:07:07;;;;;;;2.13;1.92;;;;;;;-8.26;88.00;100905.00;10526611;28;20048;-74
2022/12/27 03:18:08;;;;;;;2.70;2.00;;;;;;;-8.21;87.60;100872.59;10480698;28;20061;-74
2022/12/27 03:34:30;;;;;;;2.13;1.92;;;;;;;-8.14;87.63;100844.38;10502774;28;20052;-74
2022/12/27 03:39:33;;;;;;;4.38;2.67;;;;;;;-8.12;88.52;100825.59;10500708;28;20052;-74
2022/12/27 03:44:36;;;;;;;1.33;1.23;;;;;;;-8.10;87.70;100826.25;10475035;28;20032;-74
2022/12/27 03:49:48;;;;;;;1.77;1.58;;;;;;;-8.08;87.90;100813.63;10509194;28;20044;-73
2022/12/27 03:54:51;;;;;;;0.50;0.50;;;;;;;-8.04;88.33;100783.88;10488128;28;20044;-72
2022/12/27 03:59:53;;;;;;;2.28;1.67;;;;;;;-8.04;87.79;100772.38;10493172;28;20049;-73
2022/12/27 04:05:20;;;;;;;3.47;1.77;;;;;;;-8.03;87.98;100784.69;10497431;28;20037;-73
2022/12/27 04:37:14;;;;;;;2.42;1.92;;;;;;;-8.01;89.21;100686.84;10515109;28;20510;-73
2022/12/27 05:04:18;;;;;;;1.60;1.10;;;;;;;-7.81;89.09;100666.97;10520830;28;20507;-74
2022/12/27 05:14:41;;;;;;;2.85;2.42;;;;;;;-7.73;88.55;100650.19;10491199;28;20059;-74
2022/12/27 05:19:44;;;;;;;0.40;0.40;;;;;;;-7.71;88.42;100622.38;10501939;28;20059;-74
2022/12/27 05:30:07;;;;;;;3.17;2.05;;;;;;;-7.62;88.20;100607.25;10520795;28;20081;-74
2022/12/27 05:35:10;;;;;;;0.90;0.90;;;;;;;-7.60;87.64;100603.44;10514289;28;20051;-74
2022/12/27 05:40:12;;;;;;;2.00;1.67;;;;;;;-7.55;87.33;100602.94;10522192;28;20044;-74
2022/12/27 05:45:14;;;;;;;2.72;2.00;;;;;;;-7.50;87.74;100595.25;10498008;28;20036;-75
2022/12/27 05:50:17;;;;;;;2.58;1.05;;;;;;;-7.48;87.72;100579.09;10510882;28;20044;-75
2022/12/27 05:55:19;;;;;;;2.25;1.55;;;;;;;-7.45;87.40;100586.78;10505397;28;20534;-74
2022/12/27 06:00:22;;;;;;;2.80;2.25;;;;;;;-7.42;87.09;100567.81;10529401;28;20430;-74
2022/12/27 06:05:24;;;;;;;3.03;2.45;;;;;;;-7.37;87.08;100566.28;10496218;28;20059;-74
2022/12/27 06:10:26;;;;;;;2.90;2.10;;;;;;;-7.34;86.66;100559.78;10500140;28;20044;-74
2022/12/27 06:15:29;;;;;;;5.07;2.55;;;;;;;-7.32;86.74;100539.13;10528331;28;20048;-73
2022/12/27 06:20:32;;;;;;;1.90;1.67;;;;;;;-7.31;87.07;100538.97;10505725;28;20052;-73
2022/12/27 06:25:36;;;;;;;5.40;2.13;;;;;;;-7.25;87.12;100533.97;10495194;28;20490;-73
2022/12/27 06:30:39;;;;;;;3.50;1.63;;;;;;;-7.21;87.36;100530.78;10511560;28;20037;-73
2022/12/27 06:35:41;;;;;;;1.60;1.38;;;;;;;-7.16;87.25;100533.78;10520168;28;20041;-74
2022/12/27 06:40:43;;;;;;;3.53;2.10;;;;;;;-7.12;87.35;100521.75;10487225;28;20060;-73
2022/12/27 06:45:54;;;;;;;1.98;1.40;;;;;;;-7.07;87.17;100498.13;10487176;28;20033;-73
2022/12/27 06:50:57;;;;;;;1.80;1.42;;;;;;;-7.00;86.89;100532.91;10487937;28;20052;-74
2022/12/27 06:56:05;;;;;;;1.42;1.15;;;;;;;-6.99;87.45;100514.06;10517104;28;20045;-73
2022/12/27 07:01:12;;;;;;;1.77;1.45;;;;;;;-6.92;87.14;100516.09;10524745;28;20044;-75
2022/12/27 07:06:14;;;;;;;3.20;1.90;;;;;;;-6.86;87.41;100502.06;10526719;28;20044;-73
2022/12/27 07:11:17;;;;;;;3.95;2.25;;;;;;;-6.83;87.76;100505.19;10527941;28;20047;-73
2022/12/27 07:16:23;;;;;;;2.45;1.98;;;;;;;-6.79;87.99;100484.34;10508733;28;20052;-74
2022/12/27 07:21:27;;;;;;;5.93;1.85;;;;;;;-6.76;87.64;100463.50;10486173;28;20067;-74
2022/12/27 07:26:29;;;;;;;3.53;2.15;;;;;;;-6.69;87.68;100452.97;10506270;28;20045;-75
2022/12/27 07:31:32;;;;;;;1.52;1.42;;;;;;;-6.59;87.87;100450.94;10520150;28;20040;-74
2022/12/27 07:36:37;;;;;;;1.75;0.95;;;;;;;-6.51;87.60;100431.34;10511401;28;20048;-73
2022/12/27 07:41:39;;;;;;;2.70;2.33;;;;;;;-6.45;87.72;100423.47;10507185;28;20048;-73
2022/12/27 07:46:42;;;;;;;2.22;1.50;;;;;;;-6.41;87.45;100432.81;10525349;28;20438;-73
2022/12/27 07:51:44;;;;;;;2.80;2.00;;;;;;;-6.39;88.39;100411.28;10525363;28;20059;-74
2022/12/27 07:56:46;;;;;;;1.38;1.15;;;;;;;-6.35;88.71;100409.06;10486458;28;20052;-75
2022/12/27 08:02:04;;;;;;;4.53;1.85;;;;;;;-6.33;89.01;100409.72;10474687;28;20049;-74
2022/12/27 08:07:16;;;;;;;1.13;1.02;;;;;;;-6.34;90.05;100395.53;10485442;28;20056;-75
2022/12/27 08:12:19;;;;;;;2.50;1.52;;;;;;;-6.31;90.05;100384.50;10483033;28;20044;-73
2022/12/27 08:17:24;;;;;;;4.15;2.47;;;;;;;-6.25;90.65;100381.09;10518080;28;20053;-73
2022/12/27 08:22:27;;;;;;;3.70;2.20;;;;;;;-6.22;90.75;100374.59;10489285;28;20049;-74
2022/12/27 08:27:29;;;;;;;4.97;2.58;;;;;;;-6.18;90.08;100350.03;10517762;28;20063;-75
2022/12/27 08:32:31;;;;;;;3.53;2.83;;;;;;;-6.15;90.07;100359.50;10495136;28;20041;-75
2022/12/27 08:37:33;;;;;;;4.50;2.63;;;;;;;-6.12;90.85;100354.63;10513945;28;20063;-74
2022/12/27 08:42:36;;;;;;;2.83;1.77;;;;;;;-6.06;90.65;100361.13;10525810;28;20392;-74
2022/12/27 08:47:38;;;;;;;2.30;1.83;;;;;;;-6.02;90.86;100340.22;10522192;28;20045;-73
2022/12/27 08:52:41;;;;;;;4.07;2.35;;;;;;;-6.00;90.95;100331.00;10483588;28;20061;-73
2022/12/27 08:57:43;;;;;;;3.22;2.38;;;;;;;-5.96;91.26;100332.28;10466475;28;20529;-73
2022/12/27 09:02:45;;;;;;;2.60;1.85;;;;;;;-5.92;91.01;100314.06;10486649;28;20041;-74
2022/12/27 09:07:48;;;;;;;3.65;2.60;;;;;;;-5.86;91.09;100319.50;10499719;28;20048;-73
2022/12/27 09:12:50;;;;;;;3.75;2.50;;;;;;;-5.81;91.14;100298.38;10518956;28;20052;-74
2022/12/27 09:17:52;;;;;;;4.05;2.17;;;;;;;-5.77;91.22;100296.16;10513324;28;20530;-73
2022/12/27 09:22:54;;;;;;;5.60;3.13;;;;;;;-5.69;91.35;100319.31;10511399;28;20055;-73
2022/12/27 09:27:57;;;;;;;3.60;2.33;;;;;;;-5.63;91.67;100306.03;10521363;28;20041;-74
2022/12/27 09:32:59;;;;;;;3.03;2.35;;;;;;;-5.59;91.64;100287.78;10489005;28;20053;-74
2022/12/27 09:38:01;;;;;;;8.18;4.15;;;;;;;-5.55;91.91;100283.75;10504138;28;20519;-76
2022/12/27 09:43:08;;;;;;;6.07;3.20;;;;;;;-5.52;91.53;100286.03;10516232;28;20052;-73
2022/12/27 09:48:35;;;;;;;2.42;1.65;;;;;;;-5.52;91.85;100268.16;10511041;28;20048;-74
2022/12/27 09:53:37;;;;;;;4.25;2.60;;;;;;;-5.49;91.90;100246.41;10530331;28;20059;-74
2022/12/27 09:59:03;;;;;;;3.88;2.45;;;;;;;-5.42;92.16;100251.81;10530481;28;20399;-73
2022/12/27 10:04:11;;;;;;;6.18;2.92;;;;;;;-5.39;92.25;100246.09;10510075;28;20060;-74
2022/12/27 10:09:38;;;;;;;2.63;1.95;;;;;;;-5.41;92.83;100242.78;10512295;28;20056;-74
2022/12/27 10:14:58;;;;;;;2.67;1.77;;;;;;;-5.41;93.00;100226.75;10523760;28;20036;-74
2022/12/27 10:20:09;;;;;;;3.28;1.80;;;;;;;-5.40;92.95;100228.38;10530251;28;20054;-74
2022/12/27 10:25:12;;;;;;;3.72;3.00;;;;;;;-5.38;92.66;100222.84;10530618;28;20055;-75
2022/12/27 10:30:19;;;;;;;4.00;2.30;;;;;;;-5.37;92.94;100217.34;10529995;28;20396;-73
2022/12/27 10:35:23;;;;;;;4.50;2.38;;;;;;;-5.32;92.82;100212.25;10515910;28;20048;-73
2022/12/27 10:40:50;;;;;;;6.50;3.50;;;;;;;-5.32;93.30;100214.94;10513978;28;20150;-74
2022/12/27 10:45:52;;;;;;;5.95;2.70;;;;;;;-5.28;92.90;100194.81;10528651;28;20032;-74
2022/12/27 10:50:58;;;;;;;6.15;4.13;;;;;;;-5.23;92.72;100199.56;10526458;28;20049;-74
2022/12/27 10:56:27;;;;;;;4.00;1.98;;;;;;;-5.18;92.90;100189.16;10496985;28;20044;-74
2022/12/27 11:01:31;;;;;;;6.25;3.53;;;;;;;-5.16;92.75;100174.56;10496290;28;20048;-73
2022/12/27 11:06:33;;;;;;;2.47;1.05;;;;;;;-5.11;92.47;100173.16;10511008;28;20384;-73
2022/12/27 11:11:35;;;;;;;8.80;3.70;;;;;;;-5.08;92.28;100175.47;10490621;28;20076;-74
2022/12/27 11:16:39;;;;;;;4.80;3.05;;;;;;;-5.05;92.39;100173.22;10486257;28;20235;-74
2022/12/27 11:21:41;;;;;;;2.88;1.65;;;;;;;-5.03;92.58;100154.31;10467840;28;20064;-73
2022/12/27 11:26:54;;;;;;;6.57;3.67;;;;;;;-5.03;92.02;100154.31;10486646;28;20048;-73
2022/12/27 11:32:05;;;;;;;4.32;2.67;;;;;;;-5.02;92.78;100139.94;10475802;28;20048;-73
2022/12/27 11:37:13;;;;;;;3.17;2.20;;;;;;;-4.99;92.75;100148.41;10486024;28;20049;-73
2022/12/27 11:42:39;;;;;;;6.28;2.80;;;;;;;-5.00;93.20;100143.25;10467762;28;20063;-74
2022/12/27 11:47:47;;;;;;;2.70;1.58;;;;;;;-5.00;93.40;100137.88;10494832;28;20045;-73
2022/12/27 11:53:11;;;;;;;3.92;2.47;;;;;;;-5.00;93.71;100128.00;10468730;28;20048;-72
2022/12/27 11:58:21;;;;;;;3.08;1.95;;;;;;;-4.97;93.87;100116.09;10467201;28;20047;-72
2022/12/27 12:03:58;;;;;;;4.65;3.10;;;;;;;-4.97;93.57;100118.78;10508602;28;20040;-73
2022/12/27 12:09:09;;;;;;;4.07;2.72;;;;;;;-4.95;94.01;100119.41;10513582;28;20071;-74
2022/12/27 12:14:14;;;;;;;3.88;2.33;;;;;;;-4.95;93.88;100112.19;10526125;28;20039;-73
2022/12/27 12:19:32;;;;;;;4.68;2.88;;;;;;;-4.94;93.88;100105.00;10515091;28;20049;-73
2022/12/27 12:24:37;;;;;;;4.82;2.72;;;;;;;-4.93;94.14;100101.31;10484446;28;20041;-74
2022/12/27 12:29:46;;;;;;;4.55;2.80;;;;;;;-4.91;94.13;100116.13;10485155;28;20506;-73
2022/12/27 12:35:13;;;;;;;4.93;2.22;;;;;;;-4.88;94.04;100105.03;10521713;28;20048;-73
2022/12/27 12:40:40;;;;;;;4.65;2.65;;;;;;;-4.87;93.89;100098.66;10530084;28;20491;-72
2022/12/27 12:46:14;;;;;;;5.75;2.85;;;;;;;-4.85;93.61;100103.84;10513998;28;20064;-73
2022/12/27 12:51:24;;;;;;;2.65;2.25;;;;;;;-4.82;93.57;100098.09;10432464;28;20076;-73
2022/12/27 12:56:49;;;;;;;4.32;2.83;;;;;;;-4.77;93.47;100101.03;10499287;28;20040;-73
2022/12/27 13:02:00;;;;;;;4.55;2.30;;;;;;;-4.72;93.75;100087.88;10514041;28;20037;-74
2022/12/27 13:07:40;;;;;;;4.03;2.20;;;;;;;-4.70;93.10;100090.34;10474774;28;20045;-73
2022/12/27 13:13:13;;;;;;;5.78;3.45;;;;;;;-4.67;93.07;100089.97;10490286;28;20059;-73
2022/12/27 13:18:30;;;;;;;2.80;1.98;;;;;;;-4.64;93.37;100079.69;10517386;28;20048;-73
2022/12/27 13:23:42;;;;;;;4.10;2.67;;;;;;;-4.60;93.08;100083.63;10497875;28;20040;-74
2022/12/27 13:28:53;;;;;;;2.08;1.63;;;;;;;-4.57;92.46;100075.19;10501890;28;20036;-73
2022/12/27 13:34:14;;;;;;;4.53;3.20;;;;;;;-4.53;92.31;100061.41;10514451;28;20091;-74
2022/12/27 13:39:41;;;;;;;6.22;1.98;;;;;;;-4.50;92.15;100064.56;10503229;28;20548;-73
2022/12/27 13:45:03;;;;;;;6.13;2.93;;;;;;;-4.46;91.61;100070.34;10502700;28;20057;-73
2022/12/27 13:50:37;;;;;;;4.60;2.67;;;;;;;-4.45;91.51;100074.66;10512459;28;20052;-72
2022/12/27 13:55:46;;;;;;;4.50;3.08;;;;;;;-4.46;91.66;100081.88;10512847;28;20438;-75
2022/12/27 14:01:20;;;;;;;6.43;3.20;;;;;;;-4.45;91.82;100069.31;10526186;28;20079;-73
2022/12/27 14:06:26;;;;;;;5.45;2.88;;;;;;;-4.47;92.35;100071.38;10521585;28;20044;-74
2022/12/27 14:12:05;;;;;;;5.25;3.25;;;;;;;-4.46;92.33;100073.84;10525545;28;20032;-74
2022/12/27 14:17:41;;;;;;;2.90;2.60;;;;;;;-4.44;93.01;100068.28;10520305;28;20067;-74
2022/12/27 14:23:10;;;;;;;7.35;2.92;;;;;;;-4.42;92.86;100071.59;10515839;28;20155;-73
2022/12/27 14:28:41;;;;;;;7.30;4.15;;;;;;;-4.37;92.43;100074.50;10469609;28;20067;-73
2022/12/27 14:34:04;;;;;;;3.58;2.95;;;;;;;-4.35;92.57;100069.75;10509078;28;20057;-74
2022/12/27 14:39:28;;;;;;;4.45;3.20;;;;;;;-4.33;92.95;100073.91;10503437;28;20051;-74
2022/12/27 14:44:56;;;;;;;3.75;3.08;;;;;;;-4.32;92.43;100066.72;10519049;28;20047;-74
2022/12/27 14:50:23;;;;;;;6.78;3.65;;;;;;;-4.30;93.09;100070.00;10519417;28;20561;-73
2022/12/27 14:55:44;;;;;;;6.90;4.38;;;;;;;-4.30;92.73;100086.91;10516283;28;20036;-75
2022/12/27 15:01:02;;;;;;;2.65;1.75;;;;;;;-4.29;93.15;100082.38;10525412;28;20060;-76
2022/12/27 15:06:21;;;;;;;6.60;4.05;;;;;;;-4.25;92.84;100088.97;10509361;28;20063;-74
2022/12/27 15:11:45;;;;;;;4.28;2.38;;;;;;;-4.24;92.99;100071.88;10490932;28;20048;-75
2022/12/27 15:16:48;;;;;;;7.05;3.15;;;;;;;-4.24;92.90;100063.84;10506115;28;20490;-74
2022/12/27 15:22:47;;;;;;;4.15;2.45;;;;;;;-4.22;92.93;100072.50;10524381;28;20423;-74
2022/12/27 15:28:20;;;;;;;5.68;2.90;;;;;;;-4.18;93.47;100089.84;10439352;28;20052;-74
2022/12/27 15:33:32;;;;;;;3.08;2.35;;;;;;;-4.17;92.75;100099.53;10510598;28;20039;-73
2022/12/27 15:38:34;;;;;;;6.32;3.08;;;;;;;-4.15;92.97;100094.81;10505107;28;20053;-74
2022/12/27 15:43:51;;;;;;;5.18;2.50;;;;;;;-4.15;93.60;100091.31;10519198;28;20055;-75
2022/12/27 15:49:02;;;;;;;3.38;2.30;;;;;;;-4.14;93.74;100083.06;10519498;28;20427;-76
2022/12/27 15:54:13;;;;;;;2.08;1.58;;;;;;;-4.17;93.85;100082.63;10501036;28;20510;-75
2022/12/27 15:59:33;;;;;;;3.75;2.40;;;;;;;-4.17;94.18;100079.94;10516899;28;20487;-76
2022/12/27 16:04:51;;;;;;;6.47;4.28;;;;;;;-4.17;94.28;100079.94;10522358;28;20055;-75
2022/12/27 16:09:54;;;;;;;6.03;3.38;;;;;;;-4.14;94.72;100075.03;10523028;28;20082;-75
2022/12/27 16:15:36;;;;;;;5.00;2.95;;;;;;;-4.10;94.30;100064.75;10507973;28;20051;-76
2022/12/27 16:20:38;;;;;;;6.32;3.50;;;;;;;-4.12;94.55;100070.31;10502577;28;20054;-75
2022/12/27 16:25:41;;;;;;;3.63;2.50;;;;;;;-4.13;94.43;100063.28;10519394;28;20123;-74
2022/12/27 16:30:45;;;;;;;5.03;2.60;;;;;;;-4.11;94.44;100060.41;10524505;28;20051;-75
2022/12/27 16:36:16;;;;;;;4.57;3.58;;;;;;;-4.14;94.79;100058.97;10496153;28;20064;-75
2022/12/27 16:41:49;;;;;;;5.00;2.92;;;;;;;-4.14;94.61;100039.38;10499213;28;20057;-74
2022/12/27 16:46:54;;;;;;;8.60;5.45;;;;;;;-4.12;94.85;100045.38;10523399;28;20044;-77
2022/12/27 16:52:06;;;;;;;6.53;4.47;;;;;;;-4.11;94.66;100039.81;10512668;28;20045;-80
2022/12/27 16:57:25;;;;;;;8.80;5.07;;;;;;;-4.12;94.76;100046.19;10517683;28;20051;-76
2022/12/27 17:02:36;;;;;;;11.32;5.57;;;;;;;-4.08;94.87;100041.25;10518734;28;20047;-77
2022/12/27 17:07:42;;;;;;;8.27;4.90;;;;;;;-4.05;94.86;100038.16;10500208;28;20036;-78
2022/12/27 17:12:47;;;;;;;8.63;5.18;;;;;;;-4.03;95.44;100030.75;10522688;28;20036;-78
2022/12/27 17:17:53;;;;;;;9.18;4.78;;;;;;;-3.99;95.09;100034.69;10499530;28;20053;-81
2022/12/27 17:22:56;;;;;;;5.25;3.25;;;;;;;-3.98;94.74;100037.19;10489476;28;20127;-77
2022/12/27 17:28:14;;;;;;;6.28;4.55;;;;;;;-3.96;95.30;100021.72;10483884;28;20040;-77
2022/12/27 17:33:37;;;;;;;6.07;4.43;;;;;;;-3.90;95.04;100022.75;10468424;28;20538;-81
2022/12/27 17:39:17;;;;;;;7.50;4.30;;;;;;;-3.89;95.15;100020.91;10511368;28;20114;-82
2022/12/27 17:44:54;;;;;;;7.43;4.85;;;;;;;-3.90;94.85;100012.03;10451629;28;20167;-79
2022/12/27 17:49:59;;;;;;;7.07;4.10;;;;;;;-3.90;94.48;100012.03;10493198;28;20037;-78
2022/12/27 18:00:53;;;;;;;8.85;3.95;;;;;;;-3.84;94.77;100013.88;10481263;28;20041;-76
2022/12/27 18:05:55;;;;;;;8.95;5.30;;;;;;;-3.81;94.74;100024.22;10516384;28;20036;-79
2022/12/27 18:11:23;;;;;;;7.75;4.95;;;;;;;-3.80;94.58;100020.53;10517597;28;20056;-78
2022/12/27 18:16:51;;;;;;;9.18;4.53;;;;;;;-3.75;94.45;100011.84;10511294;28;20049;-80
2022/12/27 18:22:02;;;;;;;7.05;4.45;;;;;;;-3.72;93.93;100006.09;10510950;28;20522;-78
2022/12/27 18:27:09;;;;;;;7.95;3.75;;;;;;;-3.73;93.79;100007.94;10518471;28;20045;-79
2022/12/27 18:32:13;;;;;;;9.50;5.13;;;;;;;-3.65;93.81;99988.97;10499761;28;20036;-78
2022/12/27 18:37:18;;;;;;;8.15;4.40;;;;;;;-3.63;93.77;100006.72;10485566;28;20140;-80
2022/12/27 18:42:38;;;;;;;7.88;5.13;;;;;;;-3.57;93.35;99995.19;10513040;28;20070;-81
2022/12/27 18:47:48;;;;;;;7.13;4.20;;;;;;;-3.55;93.82;99993.94;10489005;28;20044;-77
2022/12/27 18:53:01;;;;;;;9.38;4.45;;;;;;;-3.53;93.32;99986.50;10518216;28;20444;-82
2022/12/27 18:58:13;;;;;;;7.55;4.03;;;;;;;-3.49;93.50;99987.75;10506596;28;20104;-82
2022/12/27 19:03:17;;;;;;;9.02;5.07;;;;;;;-3.50;93.18;99996.81;10513683;28;20049;-81
2022/12/27 19:08:19;;;;;;;8.30;5.22;;;;;;;-3.49;92.97;99995.78;10525729;28;20055;-78
2022/12/27 19:13:27;;;;;;;9.55;4.90;;;;;;;-3.46;93.19;99982.00;10522331;28;20044;-79
2022/12/27 19:18:37;;;;;;;8.00;4.50;;;;;;;-3.44;93.28;99998.69;10510294;28;20539;-78
2022/12/27 19:23:47;;;;;;;8.45;3.92;;;;;;;-3.41;93.32;100000.16;10479110;28;20051;-77
2022/12/27 19:29:02;;;;;;;7.18;4.63;;;;;;;-3.34;93.25;100023.25;10509168;28;20407;-75
2022/12/27 19:34:09;;;;;;;9.00;4.07;;;;;;;-3.32;93.22;100023.03;10493218;28;20044;-77
2022/12/27 19:39:20;;;;;;;6.47;4.18;;;;;;;-3.31;93.35;100013.94;10515124;28;20059;-79
2022/12/27 19:44:22;;;;;;;7.22;3.83;;;;;;;-3.25;93.35;100020.38;10501921;28;20450;-77
2022/12/27 19:49:25;;;;;;;11.10;4.63;;;;;;;-3.21;93.07;100024.28;10500812;28;20439;-77
2022/12/27 19:54:28;;;;;;;8.35;4.53;;;;;;;-3.20;93.21;100020.56;10491661;28;20092;-76
2022/12/27 19:59:30;;;;;;;6.95;4.32;;;;;;;-3.18;93.49;100011.28;10517102;28;20036;-78
2022/12/27 20:04:32;;;;;;;6.07;4.57;;;;;;;-3.14;93.07;100006.31;10493078;28;20044;-79
2022/12/27 20:09:34;;;;;;;7.45;4.88;;;;;;;-3.12;93.35;100015.84;10509341;28;20044;-78
2022/12/27 20:14:37;;;;;;;11.65;5.18;;;;;;;-3.06;93.47;100019.53;10523078;28;20041;-77
2022/12/27 20:19:39;;;;;;;8.27;4.40;;;;;;;-3.06;93.66;100025.72;10509225;28;20028;-77
2022/12/27 20:24:42;;;;;;;11.18;4.88;;;;;;;-3.00;93.62;100029.44;10513822;28;20451;-76
2022/12/27 20:29:44;;;;;;;8.70;4.53;;;;;;;-2.97;93.64;100014.75;10515950;28;20053;-77
2022/12/27 20:34:46;;;;;;;10.02;5.28;;;;;;;-2.96;94.24;100021.78;10513191;28;20064;-77
2022/12/27 20:39:48;;;;;;;8.48;4.68;;;;;;;-2.95;94.43;100016.22;10507918;28;20060;-76
2022/12/27 20:44:51;;;;;;;6.80;4.25;;;;;;;-2.91;93.99;100024.69;10486076;28;20060;-77
2022/12/27 20:49:53;;;;;;;8.07;4.53;;;;;;;-2.86;94.10;100012.28;10494624;28;20067;-77
2022/12/27 20:54:55;;;;;;;7.30;4.53;;;;;;;-2.84;94.00;100018.25;10503588;28;20037;-77
2022/12/27 20:59:57;;;;;;;8.98;5.15;;;;;;;-2.79;94.00;100012.25;10503835;28;20506;-78
2022/12/27 21:05:00;;;;;;;8.45;4.82;;;;;;;-2.81;94.54;100011.66;10529214;28;20407;-77
2022/12/27 21:10:04;;;;;;;8.43;4.13;;;;;;;-2.80;94.10;100011.44;10516002;28;20044;-78
2022/12/27 21:15:07;;;;;;;11.75;5.20;;;;;;;-2.78;94.59;100006.69;10503060;28;20415;-78
2022/12/27 21:20:10;;;;;;;8.32;3.58;;;;;;;-2.74;94.25;99999.03;10507660;28;20048;-77
2022/12/27 21:25:12;;;;;;;8.82;4.70;;;;;;;-2.76;94.37;100007.31;10478695;28;20056;-77
2022/12/27 21:30:15;;;;;;;8.15;4.70;;;;;;;-2.71;94.72;100003.16;10511169;28;20051;-79
2022/12/27 21:35:17;;;;;;;8.25;4.72;;;;;;;-2.70;94.94;99999.44;10526156;28;20040;-79
2022/12/27 21:40:19;;;;;;;8.52;4.25;;;;;;;-2.67;94.90;100007.06;10518349;28;20059;-79
2022/12/27 21:45:21;;;;;;;7.97;4.45;;;;;;;-2.67;95.02;100002.53;10516015;28;20048;-77
2022/12/27 21:50:24;;;;;;;8.15;4.72;;;;;;;-2.66;95.04;99997.97;10520119;28;20047;-78
2022/12/27 21:55:26;;;;;;;6.47;4.32;;;;;;;-2.67;95.46;99996.34;10507943;28;20032;-78
2022/12/27 22:00:28;;;;;;;7.53;4.35;;;;;;;-2.66;95.32;99993.44;10503077;28;20051;-78
2022/12/27 22:05:31;;;;;;;10.30;4.90;;;;;;;-2.63;95.68;99992.19;10525133;28;20064;-76
2022/12/27 22:10:33;;;;;;;9.38;4.93;;;;;;;-2.61;95.81;99992.78;10491947;28;20044;-78
2022/12/27 22:15:35;;;;;;;8.93;4.80;;;;;;;-2.60;95.89;99989.09;10522154;28;20033;-78
2022/12/27 22:20:37;;;;;;;8.60;3.63;;;;;;;-2.56;96.10;99984.94;10508146;28;20048;-78
2022/12/27 22:25:41;;;;;;;6.32;3.53;;;;;;;-2.50;95.85;99989.47;10509120;28;20044;-77
2022/12/27 22:30:43;;;;;;;6.18;3.20;;;;;;;-2.49;96.00;99983.06;10512773;28;20071;-77
2022/12/27 22:35:45;;;;;;;8.10;3.95;;;;;;;-2.49;95.86;99983.88;10510224;28;20128;-76
2022/12/27 22:40:48;;;;;;;5.00;3.30;;;;;;;-2.44;96.00;99977.84;10512030;28;20045;-77
2022/12/27 22:45:50;;;;;;;7.57;3.70;;;;;;;-2.41;95.85;99976.63;10526003;28;20036;-78
2022/12/27 22:50:52;;;;;;;7.32;4.53;;;;;;;-2.41;95.88;99977.47;10497451;28;20032;-77
2022/12/27 22:55:54;;;;;;;7.88;3.65;;;;;;;-2.42;96.11;99973.13;10520115;28;20036;-77
2022/12/27 23:00:57;;;;;;;8.25;3.83;;;;;;;-2.41;95.94;99972.09;10524889;28;20040;-76
2022/12/27 23:06:00;;;;;;;6.22;3.45;;;;;;;-2.37;96.11;99975.16;10499346;28;20055;-76
2022/12/27 23:11:07;;;;;;;7.80;4.32;;;;;;;-2.33;95.91;99969.13;10495557;28;20539;-78
2022/12/27 23:16:10;;;;;;;8.00;3.70;;;;;;;-2.31;96.13;99966.25;10481596;28;20033;-76
2022/12/27 23:21:14;;;;;;;7.80;4.35;;;;;;;-2.28;95.63;99966.63;10498925;28;20061;-77
2022/12/27 23:26:18;;;;;;;7.00;4.18;;;;;;;-2.23;95.78;99972.22;10515237;28;20056;-78
2022/12/27 23:31:21;;;;;;;6.88;4.03;;;;;;;-2.21;95.90;99975.50;10487644;28;20044;-77
2022/12/27 23:36:24;;;;;;;6.05;3.75;;;;;;;-2.18;95.70;99963.50;10503044;28;20052;-77
2022/12/27 23:41:26;;;;;;;7.55;3.63;;;;;;;-2.14;95.70;99959.34;10479611;28;20398;-77
2022/12/27 23:46:33;;;;;;;10.80;4.20;;;;;;;-2.13;95.84;99951.06;10513699;28;20047;-77
2022/12/27 23:51:35;;;;;;;8.13;3.95;;;;;;;-2.12;95.57;99962.63;10527019;28;20041;-76
2022/12/27 23:56:37;;;;;;;9.05;4.25;;;;;;;-2.06;95.52;99960.97;10498088;28;20044;-76
